createdAt,value
2018-09-08T00:00:33.794Z,0.00
2018-09-08T00:01:33.754Z,0.00
2018-09-08T00:02:33.717Z,0.00
2018-09-08T00:03:33.685Z,0.00
2018-09-08T00:04:33.637Z,0.00
2018-09-08T00:05:33.602Z,0.00
2018-09-08T00:06:33.567Z,0.00
2018-09-08T00:07:33.532Z,0.00
2018-09-08T00:08:33.498Z,0.00
2018-09-08T00:09:33.454Z,0.00
2018-09-08T00:10:33.414Z,0.00
2018-09-08T00:11:33.379Z,0.00
2018-09-08T00:12:33.342Z,0.00
2018-09-08T00:13:33.306Z,0.00
2018-09-08T00:14:33.269Z,0.00
2018-09-08T00:15:33.232Z,0.00
2018-09-08T00:16:33.187Z,0.00
2018-09-08T00:17:33.156Z,0.00
2018-09-08T00:18:33.121Z,0.00
2018-09-08T00:19:33.081Z,0.00
2018-09-08T00:20:33.044Z,0.00
2018-09-08T00:21:33.004Z,0.00
2018-09-08T00:22:32.965Z,0.00
2018-09-08T00:23:32.931Z,0.00
2018-09-08T00:24:32.892Z,0.00
2018-09-08T00:25:32.851Z,0.00
2018-09-08T00:26:32.815Z,0.00
2018-09-08T00:27:32.785Z,0.00
2018-09-08T00:28:32.744Z,0.00
2018-09-08T00:29:32.708Z,0.00
2018-09-08T00:30:32.664Z,0.00
2018-09-08T00:31:32.628Z,0.00
2018-09-08T00:32:32.594Z,0.00
2018-09-08T00:33:32.553Z,0.00
2018-09-08T00:34:32.512Z,0.00
2018-09-08T00:35:32.472Z,0.00
2018-09-08T00:36:32.441Z,0.00
2018-09-08T00:37:32.398Z,0.00
2018-09-08T00:38:32.442Z,0.00
2018-09-08T00:39:32.328Z,0.00
2018-09-08T00:40:32.293Z,0.00
2018-09-08T00:41:32.251Z,0.00
2018-09-08T00:42:32.211Z,0.00
2018-09-08T00:43:32.172Z,0.00
2018-09-08T00:44:32.134Z,0.00
2018-09-08T00:45:32.096Z,0.00
2018-09-08T00:46:32.066Z,0.00
2018-09-08T00:47:32.030Z,0.00
2018-09-08T00:48:31.982Z,0.00
2018-09-08T00:49:31.947Z,0.00
2018-09-08T00:50:31.916Z,0.00
2018-09-08T00:51:31.882Z,0.00
2018-09-08T00:52:31.837Z,0.00
2018-09-08T00:53:31.798Z,0.00
2018-09-08T00:54:31.757Z,0.00
2018-09-08T00:55:31.724Z,0.00
2018-09-08T00:56:31.678Z,0.00
2018-09-08T00:57:31.643Z,0.00
2018-09-08T00:58:31.606Z,0.00
2018-09-08T00:59:31.573Z,0.00
2018-09-08T01:00:31.544Z,0.00
2018-09-08T01:01:31.494Z,0.00
2018-09-08T01:02:31.453Z,0.00
2018-09-08T01:03:31.417Z,0.00
2018-09-08T01:04:31.407Z,0.00
2018-09-08T01:05:31.346Z,0.00
2018-09-08T01:06:31.306Z,0.00
2018-09-08T01:07:31.262Z,0.00
2018-09-08T01:08:31.253Z,0.00
2018-09-08T01:09:31.187Z,0.00
2018-09-08T01:10:31.157Z,0.00
2018-09-08T01:11:31.117Z,0.00
2018-09-08T01:12:31.081Z,0.00
2018-09-08T01:13:31.040Z,0.00
2018-09-08T01:14:31.000Z,0.00
2018-09-08T01:15:30.961Z,0.00
2018-09-08T01:16:30.928Z,0.00
2018-09-08T01:17:30.888Z,0.00
2018-09-08T01:18:30.851Z,0.00
2018-09-08T01:19:30.815Z,0.00
2018-09-08T01:20:30.770Z,0.00
2018-09-08T01:21:30.733Z,0.00
2018-09-08T01:22:30.697Z,0.00
2018-09-08T01:23:30.663Z,0.00
2018-09-08T01:24:30.625Z,0.00
2018-09-08T01:25:30.584Z,0.00
2018-09-08T01:26:30.543Z,0.00
2018-09-08T01:27:30.504Z,0.00
2018-09-08T01:28:30.467Z,0.00
2018-09-08T01:29:30.428Z,0.00
2018-09-08T01:30:30.395Z,0.00
2018-09-08T01:31:30.357Z,0.00
2018-09-08T01:32:30.323Z,0.00
2018-09-08T01:33:30.283Z,0.00
2018-09-08T01:34:30.245Z,0.00
2018-09-08T01:35:30.201Z,0.00
2018-09-08T01:36:30.168Z,0.00
2018-09-08T01:37:30.128Z,0.00
2018-09-08T01:38:30.087Z,0.00
2018-09-08T01:39:30.052Z,0.00
2018-09-08T01:40:30.012Z,0.00
2018-09-08T01:41:29.972Z,0.00
2018-09-08T01:42:29.935Z,0.00
2018-09-08T01:43:29.903Z,0.00
2018-09-08T01:44:29.866Z,0.00
2018-09-08T01:45:29.822Z,0.00
2018-09-08T01:46:29.798Z,0.00
2018-09-08T01:47:29.741Z,0.00
2018-09-08T01:48:29.709Z,0.00
2018-09-08T01:49:29.667Z,0.00
2018-09-08T01:50:29.634Z,0.00
2018-09-08T01:51:29.596Z,0.00
2018-09-08T01:52:29.553Z,0.00
2018-09-08T01:53:29.524Z,0.00
2018-09-08T01:54:29.480Z,0.00
2018-09-08T01:55:29.443Z,0.00
2018-09-08T01:56:29.408Z,0.00
2018-09-08T01:57:29.369Z,0.00
2018-09-08T01:58:29.330Z,0.00
2018-09-08T01:59:29.287Z,0.00
2018-09-08T02:00:29.256Z,0.00
2018-09-08T02:01:29.211Z,0.00
2018-09-08T02:02:29.176Z,0.00
2018-09-08T02:03:29.142Z,0.00
2018-09-08T02:04:29.101Z,0.00
2018-09-08T02:05:29.059Z,0.00
2018-09-08T02:06:29.018Z,0.00
2018-09-08T02:07:28.985Z,0.00
2018-09-08T02:08:28.952Z,0.00
2018-09-08T02:09:28.906Z,0.00
2018-09-08T02:10:28.866Z,0.00
2018-09-08T02:11:28.828Z,0.00
2018-09-08T02:12:28.794Z,0.00
2018-09-08T02:13:28.754Z,0.00
2018-09-08T02:14:28.717Z,0.00
2018-09-08T02:15:28.682Z,0.00
2018-09-08T02:16:28.636Z,0.00
2018-09-08T02:17:28.605Z,0.00
2018-09-08T02:18:28.583Z,0.00
2018-09-08T02:19:28.526Z,0.00
2018-09-08T02:20:28.492Z,0.00
2018-09-08T02:21:28.455Z,0.00
2018-09-08T02:22:28.408Z,0.00
2018-09-08T02:23:28.372Z,0.00
2018-09-08T02:24:28.337Z,0.00
2018-09-08T02:25:28.364Z,0.00
2018-09-08T02:26:28.259Z,0.00
2018-09-08T02:27:28.215Z,0.00
2018-09-08T02:28:28.179Z,0.00
2018-09-08T02:29:28.147Z,0.00
2018-09-08T02:30:28.106Z,0.00
2018-09-08T02:31:28.078Z,0.00
2018-09-08T02:32:28.034Z,0.00
2018-09-08T02:33:27.995Z,0.00
2018-09-08T02:34:27.950Z,0.00
2018-09-08T02:35:27.913Z,0.00
2018-09-08T02:36:27.872Z,0.00
2018-09-08T02:37:27.835Z,0.00
2018-09-08T02:38:27.804Z,0.00
2018-09-08T02:39:27.762Z,0.00
2018-09-08T02:40:27.725Z,0.00
2018-09-08T02:41:27.692Z,0.00
2018-09-08T02:42:27.648Z,0.00
2018-09-08T02:43:27.616Z,0.00
2018-09-08T02:44:27.579Z,0.00
2018-09-08T02:45:27.536Z,0.00
2018-09-08T02:46:27.493Z,0.00
2018-09-08T02:47:27.455Z,0.00
2018-09-08T02:48:27.419Z,0.00
2018-09-08T02:49:27.380Z,0.00
2018-09-08T02:50:27.346Z,0.00
2018-09-08T02:51:27.308Z,0.00
2018-09-08T02:52:27.268Z,0.00
2018-09-08T02:53:27.225Z,0.00
2018-09-08T02:54:27.188Z,0.00
2018-09-08T02:55:27.145Z,0.00
2018-09-08T02:56:27.114Z,0.00
2018-09-08T02:57:27.072Z,0.00
2018-09-08T02:58:27.033Z,0.00
2018-09-08T02:59:27.000Z,0.00
2018-09-08T03:00:26.960Z,0.00
2018-09-08T03:01:26.920Z,0.00
2018-09-08T03:02:26.881Z,0.00
2018-09-08T03:03:26.852Z,0.00
2018-09-08T03:04:26.816Z,0.00
2018-09-08T03:05:26.780Z,0.00
2018-09-08T03:06:26.729Z,0.00
2018-09-08T03:07:26.688Z,0.00
2018-09-08T03:08:26.651Z,0.00
2018-09-08T03:09:26.611Z,0.00
2018-09-08T03:10:26.576Z,0.00
2018-09-08T03:11:26.544Z,0.00
2018-09-08T03:12:26.497Z,0.00
2018-09-08T03:13:26.460Z,0.00
2018-09-08T03:14:26.424Z,0.00
2018-09-08T03:15:26.389Z,0.00
2018-09-08T03:16:26.355Z,0.00
2018-09-08T03:17:26.312Z,0.00
2018-09-08T03:18:26.267Z,0.00
2018-09-08T03:19:26.228Z,0.00
2018-09-08T03:20:26.191Z,0.00
2018-09-08T03:21:26.156Z,0.00
2018-09-08T03:22:26.119Z,0.00
2018-09-08T03:23:26.081Z,0.00
2018-09-08T03:24:26.042Z,0.00
2018-09-08T03:25:26.005Z,0.00
2018-09-08T03:26:25.963Z,0.00
2018-09-08T03:27:25.919Z,0.00
2018-09-08T03:28:25.890Z,0.00
2018-09-08T03:29:25.874Z,0.00
2018-09-08T03:30:25.812Z,0.00
2018-09-08T03:31:25.773Z,0.00
2018-09-08T03:32:25.730Z,0.00
2018-09-08T03:33:25.693Z,0.00
2018-09-08T03:34:25.659Z,0.00
2018-09-08T03:35:25.623Z,0.00
2018-09-08T03:36:25.586Z,0.00
2018-09-08T03:37:25.543Z,0.00
2018-09-08T03:38:25.502Z,0.00
2018-09-08T03:39:25.466Z,0.00
2018-09-08T03:40:25.426Z,0.00
2018-09-08T03:41:25.388Z,0.00
2018-09-08T03:42:25.354Z,0.00
2018-09-08T03:43:25.317Z,0.00
2018-09-08T03:44:25.271Z,0.00
2018-09-08T03:45:25.240Z,0.00
2018-09-08T03:46:25.197Z,0.00
2018-09-08T03:47:25.164Z,0.00
2018-09-08T03:48:25.124Z,0.00
2018-09-08T03:49:25.087Z,0.00
2018-09-08T03:50:25.045Z,0.00
2018-09-08T03:51:25.001Z,0.00
2018-09-08T03:52:24.964Z,0.00
2018-09-08T03:53:24.925Z,0.00
2018-09-08T03:54:24.893Z,0.00
2018-09-08T04:07:06.046Z,0.00
2018-09-08T04:07:56.882Z,0.00
2018-09-08T04:08:56.862Z,0.00
2018-09-08T04:09:56.811Z,0.00
2018-09-08T04:10:56.766Z,0.00
2018-09-08T04:11:56.781Z,0.00
2018-09-08T04:12:56.685Z,0.00
2018-09-08T04:13:56.639Z,0.00
2018-09-08T04:14:56.607Z,0.00
2018-09-08T04:15:56.563Z,0.00
2018-09-08T04:16:56.528Z,0.00
2018-09-08T04:17:56.483Z,0.00
2018-09-08T04:18:56.444Z,0.00
2018-09-08T04:19:56.398Z,0.00
2018-09-08T04:20:56.362Z,0.00
2018-09-08T04:21:56.325Z,0.00
2018-09-08T04:22:56.290Z,0.00
2018-09-08T04:23:56.256Z,0.00
2018-09-08T04:24:56.210Z,0.00
2018-09-08T04:25:56.168Z,0.00
2018-09-08T04:26:56.135Z,0.00
2018-09-08T04:27:56.112Z,0.00
2018-09-08T04:28:56.058Z,0.00
2018-09-08T04:29:56.018Z,0.00
2018-09-08T04:30:55.979Z,0.00
2018-09-08T04:31:55.932Z,0.00
2018-09-08T04:32:55.893Z,0.00
2018-09-08T04:33:55.857Z,0.00
2018-09-08T04:34:55.822Z,0.00
2018-09-08T04:35:55.797Z,0.00
2018-09-08T04:36:55.746Z,0.00
2018-09-08T04:37:55.704Z,0.00
2018-09-08T04:38:55.670Z,0.00
2018-09-08T04:39:55.628Z,0.00
2018-09-08T04:40:55.597Z,0.00
2018-09-08T04:41:55.548Z,0.00
2018-09-08T04:42:55.516Z,0.00
2018-09-08T04:43:55.477Z,0.00
2018-09-08T04:44:55.439Z,0.00
2018-09-08T04:45:55.396Z,0.00
2018-09-08T04:46:55.358Z,0.00
2018-09-08T04:47:55.320Z,0.00
2018-09-08T04:48:55.287Z,0.00
2018-09-08T04:49:55.242Z,0.00
2018-09-08T04:50:55.205Z,0.00
2018-09-08T04:51:55.166Z,0.00
2018-09-08T04:52:55.124Z,0.00
2018-09-08T04:53:55.090Z,0.00
2018-09-08T04:54:55.054Z,0.00
2018-09-08T04:55:55.014Z,0.00
2018-09-08T04:56:54.976Z,5.63
2018-09-08T04:57:54.939Z,5.63
2018-09-08T04:58:54.895Z,5.63
2018-09-08T04:59:54.857Z,5.63
2018-09-08T05:00:54.822Z,5.63
2018-09-08T05:01:54.783Z,5.63
2018-09-08T05:02:54.747Z,5.63
2018-09-08T05:03:54.703Z,5.63
2018-09-08T05:04:54.670Z,11.25
2018-09-08T05:05:54.627Z,11.25
2018-09-08T05:06:54.597Z,11.25
2018-09-08T05:07:54.558Z,11.25
2018-09-08T05:08:54.575Z,11.25
2018-09-08T05:09:54.476Z,16.88
2018-09-08T05:10:54.442Z,16.88
2018-09-08T05:11:54.402Z,16.88
2018-09-08T05:12:54.359Z,16.88
2018-09-08T05:13:54.329Z,16.88
2018-09-08T05:14:54.298Z,22.50
2018-09-08T05:15:54.249Z,22.50
2018-09-08T05:16:54.211Z,22.50
2018-09-08T05:17:54.168Z,22.50
2018-09-08T05:18:54.133Z,28.13
2018-09-08T05:19:54.097Z,28.13
2018-09-08T05:20:54.063Z,28.13
2018-09-08T05:21:54.018Z,28.13
2018-09-08T05:22:53.979Z,33.75
2018-09-08T05:23:53.938Z,33.75
2018-09-08T05:24:53.902Z,33.75
2018-09-08T05:25:53.865Z,33.75
2018-09-08T05:26:53.826Z,39.38
2018-09-08T05:27:53.791Z,39.38
2018-09-08T05:28:53.758Z,39.38
2018-09-08T05:29:53.713Z,39.38
2018-09-08T05:30:53.675Z,45.00
2018-09-08T05:31:53.631Z,45.00
2018-09-08T05:32:53.600Z,45.00
2018-09-08T05:33:53.560Z,45.00
2018-09-08T05:34:53.572Z,50.63
2018-09-08T05:35:53.479Z,50.63
2018-09-08T05:36:53.445Z,50.63
2018-09-08T05:37:53.411Z,50.63
2018-09-08T05:38:53.376Z,56.25
2018-09-08T05:39:53.335Z,56.25
2018-09-08T05:40:53.302Z,56.25
2018-09-08T05:41:53.255Z,56.25
2018-09-08T05:42:53.232Z,61.88
2018-09-08T05:43:53.178Z,61.88
2018-09-08T05:44:53.144Z,61.88
2018-09-08T05:45:53.102Z,61.88
2018-09-08T05:46:53.065Z,61.88
2018-09-08T05:47:53.028Z,61.88
2018-09-08T05:48:52.998Z,61.88
2018-09-08T05:49:52.951Z,61.88
2018-09-08T05:50:52.921Z,67.50
2018-09-08T05:51:52.880Z,67.50
2018-09-08T05:52:52.840Z,67.50
2018-09-08T05:53:52.801Z,67.50
2018-09-08T05:54:52.761Z,73.13
2018-09-08T05:55:52.719Z,73.13
2018-09-08T05:56:52.680Z,73.13
2018-09-08T05:57:52.651Z,73.13
2018-09-08T05:58:52.611Z,78.75
2018-09-08T05:59:52.583Z,78.75
2018-09-08T06:00:52.540Z,78.75
2018-09-08T06:01:52.500Z,78.75
2018-09-08T06:02:52.458Z,78.75
2018-09-08T06:03:52.421Z,78.75
2018-09-08T06:04:52.390Z,84.38
2018-09-08T06:05:52.347Z,84.38
2018-09-08T06:06:52.306Z,84.38
2018-09-08T06:07:52.269Z,84.38
2018-09-08T06:08:52.233Z,90.00
2018-09-08T06:09:52.197Z,90.00
2018-09-08T06:10:52.158Z,90.00
2018-09-08T06:11:52.121Z,90.00
2018-09-08T06:12:52.080Z,90.00
2018-09-08T06:13:52.044Z,90.00
2018-09-08T06:14:52.008Z,95.63
2018-09-08T06:15:51.980Z,95.63
2018-09-08T06:16:51.939Z,95.63
2018-09-08T06:17:51.896Z,95.63
2018-09-08T06:18:51.859Z,101.25
2018-09-08T06:19:51.818Z,101.25
2018-09-08T06:20:51.786Z,101.25
2018-09-08T06:21:51.755Z,101.25
2018-09-08T06:22:53.556Z,106.88
2018-09-08T06:23:51.670Z,106.88
2018-09-08T06:24:51.632Z,106.88
2018-09-08T06:25:51.597Z,106.88
2018-09-08T06:26:51.563Z,106.88
2018-09-08T06:27:51.526Z,106.88
2018-09-08T06:28:51.489Z,112.50
2018-09-08T06:29:51.452Z,112.50
2018-09-08T06:30:51.408Z,112.50
2018-09-08T06:31:51.447Z,112.50
2018-09-08T06:32:51.331Z,118.13
2018-09-08T06:33:51.379Z,118.13
2018-09-08T06:34:51.263Z,118.13
2018-09-08T06:35:51.227Z,118.13
2018-09-08T06:36:51.186Z,118.13
2018-09-08T06:37:51.151Z,118.13
2018-09-08T06:38:51.118Z,123.75
2018-09-08T06:39:51.077Z,123.75
2018-09-08T06:40:51.039Z,123.75
2018-09-08T06:41:51.003Z,123.75
2018-09-08T06:42:50.966Z,123.75
2018-09-08T06:43:50.928Z,123.75
2018-09-08T06:44:50.924Z,112.50
2018-09-08T06:45:50.851Z,112.50
2018-09-08T06:46:50.817Z,112.50
2018-09-08T06:47:50.783Z,112.50
2018-09-08T06:48:50.754Z,123.75
2018-09-08T06:49:50.706Z,129.38
2018-09-08T06:50:50.676Z,129.38
2018-09-08T06:51:50.633Z,129.38
2018-09-08T06:52:50.598Z,135.00
2018-09-08T06:53:50.561Z,123.75
2018-09-08T06:54:50.522Z,123.75
2018-09-08T06:55:50.486Z,118.13
2018-09-08T06:56:50.451Z,106.88
2018-09-08T06:57:50.418Z,112.50
2018-09-08T06:58:50.375Z,129.38
2018-09-08T06:59:50.339Z,129.38
2018-09-08T07:00:50.303Z,129.38
2018-09-08T07:01:50.268Z,140.63
2018-09-08T07:02:50.231Z,140.63
2018-09-08T07:03:50.187Z,140.63
2018-09-08T07:04:50.150Z,140.63
2018-09-08T07:05:50.119Z,140.63
2018-09-08T07:06:50.084Z,140.63
2018-09-08T07:07:50.053Z,135.00
2018-09-08T07:08:50.003Z,151.88
2018-09-08T07:09:49.976Z,146.25
2018-09-08T07:10:49.935Z,146.25
2018-09-08T07:11:49.904Z,146.25
2018-09-08T07:12:49.863Z,140.63
2018-09-08T07:13:50.196Z,140.63
2018-09-08T07:14:49.844Z,146.25
2018-09-08T07:15:49.753Z,146.25
2018-09-08T07:16:49.710Z,146.25
2018-09-08T07:17:49.683Z,146.25
2018-09-08T07:18:49.642Z,151.88
2018-09-08T07:19:49.611Z,151.88
2018-09-08T07:20:49.578Z,163.13
2018-09-08T07:21:49.534Z,151.88
2018-09-08T07:22:49.509Z,157.50
2018-09-08T07:23:49.459Z,157.50
2018-09-08T07:24:49.436Z,168.75
2018-09-08T07:25:49.389Z,168.75
2018-09-08T07:26:49.351Z,168.75
2018-09-08T07:27:49.310Z,174.38
2018-09-08T07:28:49.279Z,174.38
2018-09-08T07:29:49.246Z,157.50
2018-09-08T07:30:49.216Z,168.75
2018-09-08T07:31:49.173Z,168.75
2018-09-08T07:32:49.137Z,163.13
2018-09-08T07:33:49.099Z,180.00
2018-09-08T07:34:49.066Z,191.25
2018-09-08T07:35:49.024Z,191.25
2018-09-08T07:36:48.992Z,185.63
2018-09-08T07:37:48.960Z,196.88
2018-09-08T07:38:48.924Z,196.88
2018-09-08T07:39:48.889Z,202.50
2018-09-08T07:40:48.849Z,196.88
2018-09-08T07:41:48.809Z,196.88
2018-09-08T07:42:48.775Z,196.88
2018-09-08T07:43:48.740Z,185.63
2018-09-08T07:44:48.704Z,180.00
2018-09-08T07:45:48.688Z,168.75
2018-09-08T07:46:48.630Z,163.13
2018-09-08T07:47:48.594Z,180.00
2018-09-08T07:48:48.555Z,174.38
2018-09-08T07:49:48.521Z,180.00
2018-09-08T07:50:48.490Z,180.00
2018-09-08T07:51:48.455Z,163.13
2018-09-08T07:52:48.421Z,168.75
2018-09-08T07:53:48.450Z,174.38
2018-09-08T07:54:48.344Z,180.00
2018-09-08T07:55:48.308Z,180.00
2018-09-08T07:56:48.277Z,185.63
2018-09-08T07:57:48.242Z,185.63
2018-09-08T07:58:48.206Z,185.63
2018-09-08T07:59:48.162Z,180.00
2018-09-08T08:00:48.128Z,168.75
2018-09-08T08:01:48.095Z,174.38
2018-09-08T08:02:48.062Z,196.88
2018-09-08T08:03:48.033Z,202.50
2018-09-08T08:04:47.990Z,208.13
2018-09-08T08:05:47.957Z,213.75
2018-09-08T08:06:47.948Z,213.75
2018-09-08T08:07:47.879Z,225.00
2018-09-08T08:08:47.842Z,219.38
2018-09-08T08:09:47.811Z,219.38
2018-09-08T08:10:47.777Z,208.13
2018-09-08T08:11:47.744Z,202.50
2018-09-08T08:12:47.702Z,208.13
2018-09-08T08:13:47.669Z,196.88
2018-09-08T08:14:47.633Z,191.25
2018-09-08T08:15:47.602Z,191.25
2018-09-08T08:16:47.564Z,185.63
2018-09-08T08:17:47.529Z,202.50
2018-09-08T08:18:47.490Z,191.25
2018-09-08T08:19:47.451Z,202.50
2018-09-08T08:20:47.422Z,213.75
2018-09-08T08:21:47.385Z,208.13
2018-09-08T08:22:47.350Z,219.38
2018-09-08T08:23:47.324Z,213.75
2018-09-08T08:24:47.281Z,213.75
2018-09-08T08:25:47.251Z,213.75
2018-09-08T08:26:47.207Z,185.63
2018-09-08T08:27:47.171Z,219.38
2018-09-08T08:28:47.141Z,225.00
2018-09-08T08:29:47.107Z,225.00
2018-09-08T08:30:47.068Z,213.75
2018-09-08T08:31:47.127Z,202.50
2018-09-08T08:32:47.002Z,202.50
2018-09-08T08:33:46.976Z,196.88
2018-09-08T08:34:46.930Z,202.50
2018-09-08T08:35:46.898Z,202.50
2018-09-08T08:36:46.866Z,208.13
2018-09-08T08:37:46.828Z,202.50
2018-09-08T08:38:46.793Z,202.50
2018-09-08T08:39:46.851Z,202.50
2018-09-08T08:40:46.715Z,202.50
2018-09-08T08:41:46.681Z,213.75
2018-09-08T08:42:46.648Z,202.50
2018-09-08T08:43:46.626Z,230.63
2018-09-08T08:44:46.585Z,230.63
2018-09-08T08:45:46.556Z,236.25
2018-09-08T08:46:46.517Z,225.00
2018-09-08T08:47:46.538Z,208.13
2018-09-08T08:48:46.440Z,202.50
2018-09-08T08:49:46.408Z,185.63
2018-09-08T08:50:46.372Z,196.88
2018-09-08T08:51:46.329Z,196.88
2018-09-08T08:52:46.299Z,202.50
2018-09-08T08:53:46.265Z,196.88
2018-09-08T08:54:46.233Z,185.63
2018-09-08T08:55:46.260Z,180.00
2018-09-08T08:56:46.170Z,196.88
2018-09-08T08:57:46.124Z,185.63
2018-09-08T08:58:46.091Z,208.13
2018-09-08T08:59:46.049Z,208.13
2018-09-08T09:00:46.028Z,219.38
2018-09-08T09:01:45.985Z,225.00
2018-09-08T09:02:45.952Z,225.00
2018-09-08T09:03:45.910Z,230.63
2018-09-08T09:04:45.878Z,230.63
2018-09-08T09:05:45.846Z,236.25
2018-09-08T09:06:45.813Z,230.63
2018-09-08T09:07:45.797Z,219.38
2018-09-08T09:08:46.058Z,236.25
2018-09-08T09:09:45.707Z,236.25
2018-09-08T09:10:45.674Z,236.25
2018-09-08T09:11:45.637Z,236.25
2018-09-08T09:12:45.642Z,236.25
2018-09-08T09:13:45.572Z,230.63
2018-09-08T09:14:45.552Z,230.63
2018-09-08T09:15:45.502Z,225.00
2018-09-08T09:16:45.460Z,219.38
2018-09-08T09:17:45.437Z,219.38
2018-09-08T09:18:45.703Z,225.00
2018-09-08T09:19:45.366Z,219.38
2018-09-08T09:20:45.334Z,219.38
2018-09-08T09:21:45.297Z,219.38
2018-09-08T09:22:45.257Z,225.00
2018-09-08T09:23:45.219Z,230.63
2018-09-08T09:24:45.472Z,236.25
2018-09-08T09:25:45.151Z,236.25
2018-09-08T09:26:45.122Z,241.88
2018-09-08T09:27:45.085Z,236.25
2018-09-08T09:28:45.055Z,202.50
2018-09-08T09:29:45.020Z,208.13
2018-09-08T09:30:44.981Z,213.75
2018-09-08T09:31:44.943Z,230.63
2018-09-08T09:32:44.918Z,230.63
2018-09-08T09:33:44.880Z,225.00
2018-09-08T09:34:44.848Z,230.63
2018-09-08T09:35:44.805Z,230.63
2018-09-08T09:36:44.770Z,225.00
2018-09-08T09:37:44.738Z,230.63
2018-09-08T09:38:44.707Z,225.00
2018-09-08T09:39:44.681Z,225.00
2018-09-08T09:40:44.638Z,241.88
2018-09-08T09:41:44.604Z,253.13
2018-09-08T09:42:44.566Z,168.75
2018-09-08T09:43:44.535Z,225.00
2018-09-08T09:44:44.496Z,146.25
2018-09-08T09:45:44.467Z,219.38
2018-09-08T09:46:44.433Z,230.63
2018-09-08T09:47:44.399Z,230.63
2018-09-08T09:48:44.365Z,236.25
2018-09-08T09:49:44.327Z,146.25
2018-09-08T09:50:44.300Z,151.88
2018-09-08T09:51:44.269Z,253.13
2018-09-08T09:52:44.233Z,163.13
2018-09-08T09:53:44.194Z,163.13
2018-09-08T09:54:44.160Z,174.38
2018-09-08T09:55:44.121Z,196.88
2018-09-08T09:56:44.089Z,264.38
2018-09-08T09:57:44.053Z,275.63
2018-09-08T09:58:44.020Z,191.25
2018-09-08T09:59:43.990Z,292.50
2018-09-08T10:00:43.956Z,253.13
2018-09-08T10:01:43.920Z,185.63
2018-09-08T10:02:43.884Z,185.63
2018-09-08T10:03:43.849Z,275.63
2018-09-08T10:04:43.820Z,196.88
2018-09-08T10:05:43.783Z,196.88
2018-09-08T10:06:43.763Z,236.25
2018-09-08T10:21:10.552Z,281.25
2018-09-08T10:22:10.445Z,168.75
2018-09-08T10:23:10.445Z,163.13
2018-09-08T10:24:10.464Z,163.13
2018-09-08T10:25:10.338Z,168.75
2018-09-08T10:26:10.299Z,270.00
2018-09-08T10:27:10.256Z,270.00
2018-09-08T10:28:10.214Z,168.75
2018-09-08T10:29:10.177Z,157.50
2018-09-08T10:30:10.145Z,163.13
2018-09-08T10:31:10.108Z,185.63
2018-09-08T10:32:10.423Z,168.75
2018-09-08T10:33:10.040Z,208.13
2018-09-08T10:34:10.023Z,168.75
2018-09-08T10:36:57.158Z,146.25
2018-09-08T10:37:42.112Z,247.50
2018-09-08T10:38:41.948Z,253.13
2018-09-08T10:39:41.965Z,247.50
2018-09-08T10:40:41.880Z,191.25
2018-09-08T10:41:41.838Z,151.88
2018-09-08T10:42:41.820Z,241.88
2018-09-08T10:43:41.774Z,247.50
2018-09-08T10:44:41.834Z,191.25
2018-09-08T10:45:41.704Z,163.13
2018-09-08T10:46:41.672Z,202.50
2018-09-08T10:47:41.640Z,236.25
2018-09-08T10:48:41.619Z,241.88
2018-09-08T10:49:41.574Z,241.88
2018-09-08T10:50:41.542Z,241.88
2018-09-08T10:51:41.501Z,236.25
2018-09-08T10:52:41.478Z,196.88
2018-09-08T10:53:41.431Z,191.25
2018-09-08T10:54:41.399Z,236.25
2018-09-08T10:55:41.367Z,146.25
2018-09-08T10:56:41.329Z,230.63
2018-09-08T10:57:41.300Z,151.88
2018-09-08T10:58:41.268Z,241.88
2018-09-08T10:59:41.228Z,236.25
2018-09-08T11:00:41.191Z,146.25
2018-09-08T11:01:41.297Z,236.25
2018-09-08T11:02:41.345Z,236.25
2018-09-08T11:03:41.095Z,236.25
2018-09-08T11:04:41.064Z,230.63
2018-09-08T11:05:41.030Z,236.25
2018-09-08T11:06:40.998Z,236.25
2018-09-08T11:07:40.961Z,236.25
2018-09-08T11:08:40.926Z,241.88
2018-09-08T11:09:40.897Z,236.25
2018-09-08T11:10:40.903Z,236.25
2018-09-08T11:11:40.836Z,230.63
2018-09-08T11:12:40.795Z,225.00
2018-09-08T11:13:40.753Z,225.00
2018-09-08T11:14:40.723Z,225.00
2018-09-08T11:15:40.837Z,225.00
2018-09-08T11:16:40.658Z,219.38
2018-09-08T11:17:40.620Z,219.38
2018-09-08T11:18:40.772Z,219.38
2018-09-08T11:19:40.557Z,219.38
2018-09-08T11:20:40.525Z,219.38
2018-09-08T11:21:40.625Z,219.38
2018-09-08T11:22:40.454Z,219.38
2018-09-08T11:23:40.421Z,219.38
2018-09-08T11:24:40.396Z,219.38
2018-09-08T11:25:40.355Z,219.38
2018-09-08T11:26:40.319Z,219.38
2018-09-08T11:27:40.287Z,219.38
2018-09-08T11:28:40.254Z,219.38
2018-09-08T11:29:40.222Z,219.38
2018-09-08T11:30:40.260Z,219.38
2018-09-08T11:31:40.155Z,219.38
2018-09-08T11:32:40.118Z,219.38
2018-09-08T11:33:40.094Z,219.38
2018-09-08T11:34:40.063Z,219.38
2018-09-08T11:35:40.024Z,219.38
2018-09-08T11:36:39.994Z,225.00
2018-09-08T11:37:39.954Z,219.38
2018-09-08T11:38:39.923Z,219.38
2018-09-08T11:39:39.890Z,219.38
2018-09-08T11:40:39.855Z,219.38
2018-09-08T11:41:39.834Z,225.00
2018-09-08T11:42:39.792Z,219.38
2018-09-08T11:43:39.760Z,219.38
2018-09-08T11:44:39.781Z,219.38
2018-09-08T11:45:39.690Z,219.38
2018-09-08T11:46:39.661Z,219.38
2018-09-08T11:47:39.628Z,219.38
2018-09-08T11:48:39.598Z,219.38
2018-09-08T11:49:39.647Z,213.75
2018-09-08T11:50:39.527Z,213.75
2018-09-08T11:51:39.496Z,219.38
2018-09-08T11:52:39.461Z,219.38
2018-09-08T11:53:39.432Z,219.38
2018-09-08T11:54:39.397Z,213.75
2018-09-08T11:55:39.375Z,213.75
2018-09-08T11:56:39.335Z,213.75
2018-09-08T11:57:39.303Z,213.75
2018-09-08T11:58:39.261Z,219.38
2018-09-08T11:59:39.285Z,219.38
2018-09-08T12:00:39.199Z,219.38
2018-09-08T12:01:39.170Z,219.38
2018-09-08T12:02:39.134Z,219.38
2018-09-08T12:03:39.099Z,202.50
2018-09-08T12:04:39.068Z,168.75
2018-09-08T12:05:39.037Z,219.38
2018-09-08T12:06:39.006Z,219.38
2018-09-08T12:07:38.971Z,213.75
2018-09-08T12:08:38.939Z,213.75
2018-09-08T12:09:38.904Z,213.75
2018-09-08T12:10:38.876Z,213.75
2018-09-08T12:11:38.838Z,213.75
2018-09-08T12:12:38.804Z,213.75
2018-09-08T12:13:38.773Z,213.75
2018-09-08T12:14:38.754Z,219.38
2018-09-08T12:15:38.711Z,219.38
2018-09-08T12:16:38.677Z,219.38
2018-09-08T12:17:38.640Z,213.75
2018-09-08T12:18:38.609Z,185.63
2018-09-08T12:19:38.578Z,213.75
2018-09-08T12:20:38.550Z,213.75
2018-09-08T12:21:38.510Z,219.38
2018-09-08T12:22:38.477Z,213.75
2018-09-08T12:23:38.447Z,213.75
2018-09-08T12:24:38.413Z,213.75
2018-09-08T12:25:38.382Z,213.75
2018-09-08T12:26:38.350Z,213.75
2018-09-08T12:27:38.319Z,213.75
2018-09-08T12:28:38.285Z,213.75
2018-09-08T12:29:38.249Z,213.75
2018-09-08T12:30:38.388Z,213.75
2018-09-08T12:31:38.181Z,213.75
2018-09-08T12:32:38.150Z,213.75
2018-09-08T12:33:38.121Z,213.75
2018-09-08T12:34:38.087Z,213.75
2018-09-08T12:35:38.055Z,213.75
2018-09-08T12:36:38.019Z,213.75
2018-09-08T12:37:37.994Z,213.75
2018-09-08T12:38:37.969Z,219.38
2018-09-08T12:39:37.937Z,219.38
2018-09-08T12:40:37.899Z,225.00
2018-09-08T12:41:37.856Z,225.00
2018-09-08T12:42:37.825Z,225.00
2018-09-08T12:43:37.795Z,225.00
2018-09-08T12:44:37.759Z,225.00
2018-09-08T12:45:37.733Z,225.00
2018-09-08T12:46:37.696Z,225.00
2018-09-08T12:47:37.671Z,225.00
2018-09-08T12:48:37.636Z,230.63
2018-09-08T12:49:37.597Z,219.38
2018-09-08T12:50:37.570Z,236.25
2018-09-08T12:51:37.537Z,168.75
2018-09-08T12:52:37.509Z,157.50
2018-09-08T12:53:37.504Z,163.13
2018-09-08T12:54:37.438Z,202.50
2018-09-08T12:55:37.414Z,219.38
2018-09-08T12:56:37.374Z,168.75
2018-09-08T12:57:38.161Z,180.00
2018-09-08T12:58:37.312Z,185.63
2018-09-08T12:59:37.279Z,163.13
2018-09-08T13:00:37.250Z,174.38
2018-09-08T13:01:37.212Z,174.38
2018-09-08T13:02:37.181Z,180.00
2018-09-08T13:03:37.156Z,191.25
2018-09-08T13:04:37.116Z,185.63
2018-09-08T13:05:37.088Z,230.63
2018-09-08T13:06:37.055Z,191.25
2018-09-08T13:07:37.073Z,241.88
2018-09-08T13:08:36.991Z,208.13
2018-09-08T13:09:36.968Z,247.50
2018-09-08T13:10:36.927Z,236.25
2018-09-08T13:11:36.893Z,253.13
2018-09-08T13:12:36.865Z,236.25
2018-09-08T13:13:36.827Z,247.50
2018-09-08T13:14:36.803Z,247.50
2018-09-08T13:15:36.767Z,253.13